Time;durP1;ratioP1;P1;durP2;ratioP2;P2;SDS_P1;SDS_P2;PMS_P1;PMS_P2;Temp;Humidity;BMP_temperature;BMP_pressure;BME280_temperature;BME280_humidity;BME280_pressure;Samples;Min_cycle;Max_cycle;Signal;HPM_P1;HPM_P2
2023/09/08 00:01:24;;;;;;;;;11.50;10.00;;;;;17.23;60.41;100108.06;5095140;28;8810;-59
2023/09/08 00:03:52;;;;;;;;;9.75;9.75;;;;;17.19;60.76;100109.41;5094927;28;8818;-57
2023/09/08 00:06:20;;;;;;;;;12.80;12.60;;;;;17.16;60.94;100104.34;5094996;28;8941;-60
2023/09/08 00:08:47;;;;;;;;;10.00;10.00;;;;;17.12;60.86;100094.91;5094785;28;8826;-59
2023/09/08 00:11:15;;;;;;;;;12.75;11.50;;;;;17.08;60.83;100101.59;5095301;28;9517;-59
2023/09/08 00:13:42;;;;;;;;;16.25;14.00;;;;;17.05;61.06;100098.38;5094987;28;9509;-59
2023/09/08 00:16:11;;;;;;;;;9.75;9.50;;;;;17.01;60.84;100097.84;5095842;28;8842;-59
2023/09/08 00:18:38;;;;;;;;;9.25;9.00;;;;;16.95;61.41;100093.09;5096099;28;8822;-59
2023/09/08 00:21:06;;;;;;;;;12.75;11.00;;;;;16.89;61.07;100093.75;5096140;28;8834;-58
2023/09/08 00:23:34;;;;;;;;;9.00;7.00;;;;;16.86;61.46;100091.38;5095867;28;8844;-58
2023/09/08 00:26:01;;;;;;;;;7.00;6.25;;;;;16.83;61.29;100083.63;5095933;28;9484;-59
2023/09/08 00:28:29;;;;;;;;;13.50;13.50;;;;;16.81;61.75;100091.00;5095893;28;8830;-58
2023/09/08 00:30:57;;;;;;;;;11.50;10.75;;;;;16.80;61.13;100091.16;5096176;28;8814;-59
2023/09/08 00:33:25;;;;;;;;;10.50;10.50;;;;;16.80;61.46;100097.38;5094997;28;9432;-60
2023/09/08 00:35:53;;;;;;;;;9.00;7.00;;;;;16.81;61.19;100093.69;5095389;28;8814;-59
2023/09/08 00:38:20;;;;;;;;;12.00;10.00;;;;;16.78;61.37;100093.19;5095692;28;8848;-60
2023/09/08 00:40:49;;;;;;;;;16.75;12.50;;;;;16.75;61.25;100086.25;5095622;28;8911;-59
2023/09/08 00:43:16;;;;;;;;;14.00;12.50;;;;;16.71;61.91;100084.88;5095500;28;8844;-59
2023/09/08 00:45:44;;;;;;;;;9.25;9.00;;;;;16.67;61.60;100086.19;5095571;28;8976;-58
2023/09/08 00:48:12;;;;;;;;;11.50;11.00;;;;;16.65;61.99;100085.50;5095701;28;8891;-59
2023/09/08 00:50:39;;;;;;;;;14.00;12.00;;;;;16.65;61.78;100082.81;5095431;28;8873;-60
2023/09/08 00:53:07;;;;;;;;;18.25;15.00;;;;;16.65;61.78;100080.13;5095378;28;8822;-57
2023/09/08 00:55:36;;;;;;;;;8.00;7.00;;;;;16.64;61.60;100086.50;5095563;28;8862;-59
2023/09/08 00:58:03;;;;;;;;;10.50;9.50;;;;;16.60;61.81;100085.13;5095404;28;8821;-58
2023/09/08 01:00:31;;;;;;;;;10.00;9.00;;;;;16.53;61.58;100084.06;5095398;28;8814;-60
2023/09/08 01:02:59;;;;;;;;;11.50;10.00;;;;;16.47;62.46;100087.38;5094855;28;8857;-59
2023/09/08 01:05:27;;;;;;;;;15.00;14.00;;;;;16.43;61.89;100083.34;5095000;28;8956;-60
2023/09/08 01:07:56;;;;;;;;;9.00;9.00;;;;;16.40;62.40;100089.00;5095318;28;8818;-60
2023/09/08 01:10:23;;;;;;;;;16.00;14.50;;;;;16.38;62.43;100083.94;5094760;28;8814;-59
2023/09/08 01:12:51;;;;;;;;;12.00;12.00;;;;;16.36;62.80;100082.22;5094667;28;8875;-58
2023/09/08 01:15:19;;;;;;;;;14.50;12.50;;;;;16.36;62.04;100079.53;5094224;28;8825;-58
2023/09/08 01:17:47;;;;;;;;;14.00;13.00;;;;;16.38;62.08;100080.25;5093948;28;8842;-57
2023/09/08 01:20:15;;;;;;;;;14.50;12.75;;;;;16.40;61.98;100082.81;5094710;28;8818;-60
2023/09/08 01:22:42;;;;;;;;;16.00;14.00;;;;;16.43;61.84;100090.53;5095066;28;8818;-60
2023/09/08 01:25:11;;;;;;;;;17.00;15.50;;;;;16.45;61.87;100084.00;5094660;28;8841;-60
2023/09/08 01:27:38;;;;;;;;;15.00;14.50;;;;;16.47;62.18;100090.06;5094561;28;8806;-59
2023/09/08 01:30:06;;;;;;;;;12.00;12.00;;;;;16.47;62.26;100095.44;5094580;28;8830;-60
2023/09/08 01:32:33;;;;;;;;;13.50;13.00;;;;;16.46;62.06;100088.38;5094285;28;8865;-60
2023/09/08 01:35:01;;;;;;;;;16.75;14.75;;;;;16.45;62.41;100091.22;5094727;28;8834;-60
2023/09/08 01:37:29;;;;;;;;;13.00;13.00;;;;;16.44;61.78;100092.22;5093876;28;8822;-59
2023/09/08 01:39:56;;;;;;;;;15.00;15.00;;;;;16.42;61.91;100091.53;5094724;28;8830;-60
2023/09/08 01:42:24;;;;;;;;;14.00;11.50;;;;;16.38;62.23;100093.69;5094667;28;8810;-59
2023/09/08 01:44:51;;;;;;;;;17.33;15.00;;;;;16.35;61.99;100091.25;5094290;28;8822;-59
2023/09/08 01:47:19;;;;;;;;;10.50;10.00;;;;;16.33;62.23;100090.59;5094778;28;8830;-57
2023/09/08 01:49:46;;;;;;;;;12.00;11.25;;;;;16.32;62.73;100086.22;5094698;28;8838;-59
2023/09/08 01:52:14;;;;;;;;;13.00;12.00;;;;;16.30;62.10;100088.22;5094071;28;8849;-59
2023/09/08 01:54:41;;;;;;;;;12.75;11.50;;;;;16.29;62.74;100089.22;5093572;28;8818;-59
2023/09/08 01:57:09;;;;;;;;;14.50;12.75;;;;;16.26;62.31;100088.69;5095368;28;8830;-58
2023/09/08 01:59:37;;;;;;;;;15.00;13.00;;;;;16.25;62.30;100089.69;5094964;28;8927;-58
2023/09/08 02:02:05;;;;;;;;;17.25;16.00;;;;;16.22;62.80;100089.16;5094817;28;8822;-59
2023/09/08 02:04:33;;;;;;;;;14.50;12.75;;;;;16.18;62.55;100078.69;5094679;28;8850;-58
2023/09/08 02:07:01;;;;;;;;;15.25;13.50;;;;;16.17;63.20;100080.69;5094815;28;8829;-59
2023/09/08 02:09:29;;;;;;;;;13.50;12.50;;;;;16.14;62.58;100081.00;5094780;28;8810;-59
2023/09/08 02:11:56;;;;;;;;;10.00;9.00;;;;;16.12;63.37;100077.63;5095429;28;8836;-59
2023/09/08 02:14:24;;;;;;;;;13.25;12.25;;;;;16.08;62.64;100077.06;5094989;28;8840;-58
2023/09/08 02:16:52;;;;;;;;;14.00;12.00;;;;;16.03;62.97;100078.53;5094783;28;8873;-59
2023/09/08 02:19:19;;;;;;;;;12.75;12.50;;;;;15.98;63.00;100080.81;5094688;28;8907;-60
2023/09/08 02:21:47;;;;;;;;;14.33;12.00;;;;;15.90;63.43;100078.06;5094369;28;8914;-60
2023/09/08 02:24:14;;;;;;;;;12.50;11.75;;;;;15.84;63.56;100078.69;5094418;28;8833;-60
2023/09/08 02:26:42;;;;;;;;;13.00;12.00;;;;;15.79;63.76;100079.13;5094816;28;8840;-60
2023/09/08 02:29:11;;;;;;;;;15.00;12.50;;;;;15.76;63.78;100076.75;5094327;28;8834;-58
2023/09/08 02:31:38;;;;;;;;;10.00;10.00;;;;;15.70;64.29;100079.22;5094757;28;8818;-60
2023/09/08 02:34:06;;;;;;;;;12.00;9.50;;;;;15.65;63.35;100079.66;5094305;28;8848;-58
2023/09/08 02:36:33;;;;;;;;;12.75;10.50;;;;;15.61;63.56;100072.91;5094541;28;8853;-58
2023/09/08 02:39:01;;;;;;;;;10.25;9.50;;;;;15.57;64.33;100073.34;5095138;28;8844;-58
2023/09/08 02:41:28;;;;;;;;;11.00;9.50;;;;;15.54;63.87;100071.81;5094839;28;8818;-58
2023/09/08 02:43:56;;;;;;;;;12.75;12.00;;;;;15.52;64.09;100073.81;5094737;28;8814;-57
2023/09/08 02:46:24;;;;;;;;;12.50;12.00;;;;;15.51;63.72;100069.44;5094491;28;8846;-58
2023/09/08 02:48:52;;;;;;;;;10.00;10.00;;;;;15.50;63.77;100069.56;5094654;28;8830;-59
2023/09/08 02:51:20;;;;;;;;;11.50;10.00;;;;;15.48;63.66;100066.19;5097819;28;9503;-59
2023/09/08 02:53:48;;;;;;;;;10.00;10.00;;;;;15.46;63.88;100062.84;5098028;28;8891;-59
2023/09/08 02:56:15;;;;;;;;;10.50;10.00;;;;;15.44;63.79;100064.78;5097895;28;9507;-58
2023/09/08 02:58:44;;;;;;;;;12.25;10.00;;;;;15.43;64.43;100073.84;5098007;28;8842;-60
2023/09/08 03:01:13;;;;;;;;;15.50;13.00;;;;;15.40;64.32;100068.78;5098096;28;8830;-58
2023/09/08 03:03:41;;;;;;;;;17.50;14.75;;;;;15.38;64.41;100065.38;5097459;28;8824;-58
2023/09/08 03:06:08;;;;;;;;;15.25;13.50;;;;;15.38;64.33;100068.06;5097822;28;8818;-60
2023/09/08 03:08:36;;;;;;;;;12.00;12.00;;;;;15.38;64.54;100070.75;5097739;28;8810;-57
2023/09/08 03:11:04;;;;;;;;;13.00;12.00;;;;;15.38;64.07;100076.97;5097615;28;8940;-60
2023/09/08 03:13:33;;;;;;;;;16.00;16.00;;;;;15.39;64.26;100067.94;5098542;28;8846;-59
2023/09/08 03:16:01;;;;;;;;;12.75;12.75;;;;;15.40;63.67;100068.78;5097816;28;8931;-58
2023/09/08 03:18:29;;;;;;;;;16.00;15.00;;;;;15.39;64.12;100067.94;5097228;28;8918;-59
2023/09/08 03:20:56;;;;;;;;;13.50;13.00;;;;;15.38;64.36;100062.69;5097040;28;8864;-59
2023/09/08 03:23:24;;;;;;;;;17.50;15.75;;;;;15.38;63.91;100071.63;5097128;28;8927;-58
2023/09/08 03:25:51;;;;;;;;;10.50;9.50;;;;;15.39;64.06;100067.09;5097171;28;8817;-60
2023/09/08 03:28:19;;;;;;;;;11.50;10.00;;;;;15.38;64.35;100065.38;5097568;28;8829;-58
2023/09/08 03:30:47;;;;;;;;;9.00;8.75;;;;;15.38;63.97;100065.38;5097251;28;8834;-59
2023/09/08 03:33:14;;;;;;;;;17.25;14.50;;;;;15.37;63.76;100058.34;5096846;28;8852;-60
2023/09/08 03:35:44;;;;;;;;;8.00;8.00;;;;;15.37;63.73;100061.00;5097298;28;8895;-60
2023/09/08 03:38:11;;;;;;;;;9.75;9.75;;;;;15.37;64.08;100063.69;5096770;28;8818;-58
2023/09/08 03:40:39;;;;;;;;;15.25;12.50;;;;;15.35;64.25;100055.81;5097143;28;8889;-58
2023/09/08 03:43:06;;;;;;;;;14.75;14.25;;;;;15.36;64.44;100062.00;5097060;28;9692;-60
2023/09/08 03:45:34;;;;;;;;;13.50;13.00;;;;;15.35;64.15;100058.50;5096803;28;8854;-57
2023/09/08 03:48:02;;;;;;;;;13.50;12.75;;;;;15.36;63.90;100054.81;5096645;28;8822;-56
2023/09/08 03:50:29;;;;;;;;;18.25;18.25;;;;;15.37;64.39;100059.19;5096838;28;8883;-58
2023/09/08 03:52:57;;;;;;;;;15.25;15.00;;;;;15.38;64.39;100049.28;5096632;28;8828;-60
2023/09/08 03:55:25;;;;;;;;;15.50;15.00;;;;;15.39;64.43;100053.69;5096864;28;8984;-58
2023/09/08 03:57:53;;;;;;;;;6.00;6.00;;;;;15.36;64.17;100062.88;5096819;28;8826;-58
2023/09/08 04:00:22;;;;;;;;;12.50;12.00;;;;;15.32;64.33;100066.00;5095675;28;9495;-57
2023/09/08 04:02:50;;;;;;;;;9.50;9.50;;;;;15.25;64.74;100064.88;5096090;28;8922;-60
2023/09/08 04:05:17;;;;;;;;;9.00;9.00;;;;;15.21;64.53;100063.47;5096091;28;8861;-58
2023/09/08 04:07:45;;;;;;;;;12.75;12.75;;;;;15.17;64.89;100064.78;5096176;28;8906;-59
2023/09/08 04:10:13;;;;;;;;;12.25;11.00;;;;;15.14;64.90;100062.38;5095781;28;8818;-59
2023/09/08 04:12:41;;;;;;;;;12.25;11.00;;;;;15.13;64.82;100071.41;5096008;28;8841;-60
2023/09/08 04:15:08;;;;;;;;;14.00;12.75;;;;;15.12;64.68;100073.28;5095755;28;8846;-59
2023/09/08 04:17:36;;;;;;;;;12.50;12.50;;;;;15.11;64.98;100068.03;5096316;28;8857;-58
2023/09/08 04:20:05;;;;;;;;;12.50;12.25;;;;;15.08;65.02;100068.31;5095827;28;8849;-57
2023/09/08 04:22:33;;;;;;;;;11.00;10.25;;;;;15.06;65.21;100067.63;5095451;28;8844;-59
2023/09/08 04:25:00;;;;;;;;;13.00;12.25;;;;;15.03;65.30;100063.41;5095255;28;8814;-58
2023/09/08 04:27:28;;;;;;;;;10.00;10.00;;;;;15.00;64.73;100066.38;5095155;28;8826;-58
2023/09/08 04:29:56;;;;;;;;;9.50;9.50;;;;;14.98;64.74;100064.84;5094613;28;8949;-57
2023/09/08 04:32:23;;;;;;;;;12.50;12.00;;;;;14.98;64.98;100071.06;5094681;28;8868;-57
2023/09/08 04:34:51;;;;;;;;;12.00;9.75;;;;;14.95;65.07;100073.19;5094582;28;8833;-60
2023/09/08 04:37:18;;;;;;;;;12.00;8.50;;;;;14.88;65.40;100074.75;5094368;28;8837;-58
2023/09/08 04:39:46;;;;;;;;;12.00;10.00;;;;;14.81;65.24;100077.16;5094298;28;8845;-56
2023/09/08 04:42:14;;;;;;;;;9.75;9.00;;;;;14.79;65.42;100081.00;5095011;28;8852;-58
2023/09/08 04:44:41;;;;;;;;;9.50;9.50;;;;;14.75;65.54;100079.59;5094448;28;8814;-58
2023/09/08 04:47:09;;;;;;;;;12.50;12.50;;;;;14.72;65.52;100077.22;5094941;28;8864;-59
2023/09/08 04:49:38;;;;;;;;;11.50;10.50;;;;;14.70;65.57;100080.03;5095101;28;8818;-60
2023/09/08 04:52:05;;;;;;;;;13.50;13.00;;;;;14.72;65.41;100082.56;5093478;28;8838;-57
2023/09/08 04:54:33;;;;;;;;;10.50;9.25;;;;;14.73;65.89;100084.25;5094292;28;8830;-57
2023/09/08 04:57:01;;;;;;;;;8.00;6.75;;;;;14.73;65.48;100078.91;5094404;28;8830;-58
2023/09/08 04:59:47;;;;;;;;;13.00;12.75;;;;;14.73;65.58;100085.09;5094521;28;8822;-59
2023/09/08 05:02:15;;;;;;;;;12.25;12.25;;;;;14.75;64.91;100084.94;5094555;28;8833;-58
2023/09/08 05:04:43;;;;;;;;;16.00;15.00;;;;;14.76;65.71;100083.97;5094137;28;8895;-58
2023/09/08 05:07:12;;;;;;;;;13.00;13.00;;;;;14.79;65.77;100089.03;5094752;28;8891;-60
2023/09/08 05:09:40;;;;;;;;;11.50;11.50;;;;;14.82;64.94;100084.25;5095121;28;8832;-60
2023/09/08 05:12:07;;;;;;;;;17.50;16.00;;;;;14.86;65.13;100080.25;5093556;28;8976;-58
2023/09/08 05:14:35;;;;;;;;;15.75;15.25;;;;;14.92;65.00;100081.50;5094225;28;9805;-60
2023/09/08 05:17:03;;;;;;;;;15.50;13.50;;;;;14.96;65.33;100074.88;5094444;28;8842;-58
2023/09/08 05:19:30;;;;;;;;;18.00;17.00;;;;;15.01;65.22;100081.47;5093742;28;8833;-60
2023/09/08 05:21:58;;;;;;;;;11.50;11.00;;;;;15.04;65.00;100083.03;5094071;28;8826;-60
2023/09/08 05:24:26;;;;;;;;;12.75;12.00;;;;;15.09;64.75;100078.09;5093979;28;8845;-60
2023/09/08 05:26:54;;;;;;;;;10.50;10.25;;;;;15.11;64.76;100084.97;5093360;28;8833;-60
2023/09/08 05:29:22;;;;;;;;;11.50;9.25;;;;;15.13;64.65;100082.16;5093616;28;8826;-58
2023/09/08 05:31:50;;;;;;;;;13.50;12.50;;;;;15.15;64.28;100080.16;5093752;28;8841;-58
2023/09/08 05:34:17;;;;;;;;;12.25;11.00;;;;;15.19;64.75;100073.50;5093704;28;8956;-59
2023/09/08 05:36:45;;;;;;;;;13.00;12.75;;;;;15.25;63.92;100071.06;5094119;28;8830;-60
2023/09/08 05:39:13;;;;;;;;;14.50;14.00;;;;;15.29;64.16;100069.78;5093472;28;8822;-59
2023/09/08 05:41:41;;;;;;;;;11.00;9.75;;;;;15.36;64.08;100072.75;5093832;28;9658;-61
2023/09/08 05:44:08;;;;;;;;;15.50;14.00;;;;;15.43;63.67;100068.47;5094456;28;8864;-60
2023/09/08 05:46:36;;;;;;;;;13.00;12.00;;;;;15.51;63.80;100069.44;5093681;28;8935;-60
2023/09/08 05:49:04;;;;;;;;;15.25;12.75;;;;;15.61;63.92;100077.44;5093783;28;9793;-60
2023/09/08 05:51:31;;;;;;;;;13.75;12.75;;;;;15.73;63.35;100078.91;5093324;28;8948;-59
2023/09/08 05:53:59;;;;;;;;;13.25;11.00;;;;;15.82;63.29;100075.28;5093378;28;8825;-59
2023/09/08 05:56:27;;;;;;;;;12.00;10.00;;;;;15.91;63.68;100074.41;5093473;28;8838;-59
2023/09/08 05:58:54;;;;;;;;;11.00;10.00;;;;;16.00;63.33;100078.84;5093660;28;8822;-59
2023/09/08 06:01:22;;;;;;;;;17.00;16.00;;;;;16.09;63.14;100075.25;5093403;28;8826;-59
2023/09/08 06:03:50;;;;;;;;;16.00;15.50;;;;;16.17;62.76;100079.69;5093117;28;8837;-60
2023/09/08 06:06:18;;;;;;;;;16.00;14.00;;;;;16.29;62.36;100088.38;5093299;28;8818;-58
2023/09/08 06:08:46;;;;;;;;;16.75;15.50;;;;;16.40;62.39;100082.81;5093366;28;8844;-60
2023/09/08 06:11:13;;;;;;;;;12.00;10.50;;;;;16.49;61.68;100079.16;5093573;28;8837;-60
2023/09/08 06:13:42;;;;;;;;;16.00;15.50;;;;;16.60;61.96;100078.91;5093340;28;8830;-60
2023/09/08 06:16:10;;;;;;;;;16.00;15.75;;;;;16.68;62.14;100076.28;5093438;28;8992;-59
2023/09/08 06:18:39;;;;;;;;;11.00;11.00;;;;;16.80;61.90;100070.47;5093477;28;8868;-59
2023/09/08 06:21:07;;;;;;;;;13.00;12.75;;;;;16.92;61.77;100079.97;5093018;28;8834;-60
2023/09/08 06:23:35;;;;;;;;;11.00;10.75;;;;;17.08;61.41;100079.25;5092253;28;8822;-59
2023/09/08 06:26:05;;;;;;;;;15.00;14.50;;;;;17.26;61.04;100072.78;5095309;28;8829;-58
2023/09/08 06:28:33;;;;;;;;;21.00;18.00;;;;;17.42;60.77;100067.50;5095062;28;8846;-59
2023/09/08 06:31:01;;;;;;;;;16.75;15.25;;;;;17.58;60.41;100072.94;5095587;28;8838;-60
2023/09/08 06:33:29;;;;;;;;;15.00;15.00;;;;;17.68;60.25;100076.31;5095446;28;8830;-59
2023/09/08 06:35:57;;;;;;;;;21.50;18.00;;;;;17.75;60.62;100071.16;5096124;28;8853;-60
2023/09/08 06:38:25;;;;;;;;;18.25;16.50;;;;;17.82;60.19;100080.22;5096458;28;8826;-60
2023/09/08 06:40:53;;;;;;;;;19.00;17.50;;;;;17.90;60.45;100082.97;5096064;28;8838;-58
2023/09/08 06:43:21;;;;;;;;;15.75;15.25;;;;;17.99;60.29;100069.31;5096520;28;8826;-58
2023/09/08 06:45:49;;;;;;;;;12.00;9.50;;;;;18.06;60.18;100074.91;5095893;28;8846;-59
2023/09/08 06:48:17;;;;;;;;;16.00;15.25;;;;;18.12;60.30;100077.78;5097290;28;8975;-60
2023/09/08 06:50:45;;;;;;;;;7.25;6.75;;;;;18.20;60.19;100074.22;5095856;28;8830;-58
2023/09/08 06:53:13;;;;;;;;;19.50;18.25;;;;;18.36;59.30;100075.13;5095913;28;8822;-60
2023/09/08 06:55:42;;;;;;;;;17.50;15.50;;;;;18.50;59.23;100082.56;5095146;28;8858;-59
2023/09/08 06:58:14;;;;;;;;;18.60;14.80;;;;;18.66;59.14;100076.31;5095878;28;8829;-60
2023/09/08 07:00:42;;;;;;;;;16.00;16.00;;;;;18.84;58.97;100069.72;5096248;28;8853;-58
2023/09/08 07:03:10;;;;;;;;;15.60;15.20;;;;;19.03;58.48;100069.31;5095822;28;9499;-61
2023/09/08 07:05:38;;;;;;;;;15.00;15.00;;;;;19.21;58.60;100072.66;5096424;28;8907;-60
2023/09/08 07:08:06;;;;;;;;;14.60;12.80;;;;;19.37;58.04;100078.03;5096320;28;8906;-59
2023/09/08 07:10:34;;;;;;;;;19.00;15.00;;;;;19.54;57.84;100065.28;5096423;28;8826;-59
2023/09/08 07:13:02;;;;;;;;;17.40;17.00;;;;;19.70;57.67;100066.06;5097091;28;9514;-60
2023/09/08 07:15:30;;;;;;;;;15.60;14.80;;;;;19.86;57.33;100067.84;5096539;28;8854;-60
2023/09/08 07:17:58;;;;;;;;;14.80;14.40;;;;;19.98;56.86;100061.00;5096567;28;8846;-61
2023/09/08 07:20:26;;;;;;;;;16.80;16.20;;;;;20.11;56.98;100059.41;5096919;28;8818;-59
2023/09/08 07:22:54;;;;;;;;;14.20;14.00;;;;;20.25;57.24;100060.50;5097110;28;8906;-59
2023/09/08 07:25:22;;;;;;;;;19.00;15.60;;;;;20.39;56.75;100060.56;5096612;28;8834;-61
2023/09/08 07:27:52;;;;;;;;;19.60;19.00;;;;;20.54;56.83;100061.44;5095456;28;8822;-59
2023/09/08 07:30:20;;;;;;;;;19.60;17.80;;;;;20.65;56.48;100061.03;5096593;28;8848;-60
2023/09/08 07:32:47;;;;;;;;;17.40;16.40;;;;;20.76;56.66;100055.16;5096294;28;9635;-59
2023/09/08 07:35:16;;;;;;;;;18.40;16.60;;;;;20.88;56.78;100059.13;5094429;28;8857;-60
2023/09/08 07:37:44;;;;;;;;;17.00;13.20;;;;;21.01;56.15;100059.31;5095200;28;9781;-58
2023/09/08 07:40:12;;;;;;;;;18.40;18.20;;;;;21.14;55.73;100056.81;5094846;28;8826;-58
2023/09/08 07:42:40;;;;;;;;;19.40;18.80;;;;;21.27;56.33;100057.81;5095043;28;8830;-59
2023/09/08 07:45:09;;;;;;;;;16.80;15.80;;;;;21.43;55.77;100064.94;5095420;28;9522;-60
2023/09/08 07:47:38;;;;;;;;;14.40;14.20;;;;;21.57;55.74;100059.47;5095644;28;8842;-59
2023/09/08 07:50:06;;;;;;;;;13.60;13.60;;;;;21.73;55.07;100067.47;5095016;28;8833;-60
2023/09/08 07:52:34;;;;;;;;;14.00;14.00;;;;;21.88;55.35;100068.25;5095557;28;8822;-61
2023/09/08 07:55:03;;;;;;;;;14.00;12.80;;;;;22.07;54.87;100056.78;5094989;28;8822;-59
2023/09/08 07:57:31;;;;;;;;;14.80;12.40;;;;;22.27;54.58;100059.69;5095445;28;8837;-58
2023/09/08 07:59:59;;;;;;;;;16.00;14.80;;;;;22.46;54.56;100050.94;5095408;28;8833;-60
2023/09/08 08:02:27;;;;;;;;;11.80;10.60;;;;;22.63;54.06;100055.06;5095316;28;8894;-59
2023/09/08 08:04:54;;;;;;;;;15.60;14.60;;;;;22.82;53.58;100057.09;5095244;28;8826;-61
2023/09/08 08:07:22;;;;;;;;;5.00;4.60;;;;;22.98;53.55;100056.81;5094838;28;8846;-59
2023/09/08 08:09:50;;;;;;;;;10.80;9.00;;;;;23.13;53.73;100060.25;5094334;28;8858;-60
2023/09/08 08:12:18;;;;;;;;;11.60;10.60;;;;;23.28;53.50;100052.84;5094805;28;8851;-59
2023/09/08 08:14:46;;;;;;;;;12.00;10.40;;;;;23.42;52.87;100054.59;5095432;28;8849;-59
2023/09/08 08:17:13;;;;;;;;;11.80;11.80;;;;;23.58;52.62;100054.28;5094807;28;8882;-59
2023/09/08 08:19:41;;;;;;;;;10.20;10.00;;;;;23.72;52.66;100053.25;5095118;28;8837;-59
2023/09/08 08:22:09;;;;;;;;;9.40;9.40;;;;;23.84;52.62;100052.50;5094873;28;8818;-59
2023/09/08 08:24:37;;;;;;;;;12.20;12.20;;;;;23.98;52.92;100056.13;5093535;28;8848;-59
2023/09/08 08:27:05;;;;;;;;;10.00;9.20;;;;;24.11;52.56;100059.72;5093324;28;8841;-59
2023/09/08 08:29:33;;;;;;;;;12.00;12.00;;;;;24.25;52.56;100060.56;5094383;28;8841;-59
2023/09/08 08:32:00;;;;;;;;;12.00;11.60;;;;;24.40;51.89;100050.31;5094738;28;8863;-59
2023/09/08 08:34:28;;;;;;;;;9.00;9.00;;;;;24.52;52.17;100049.53;5094018;28;8826;-59
2023/09/08 08:36:56;;;;;;;;;10.00;9.60;;;;;24.65;52.01;100046.00;5094500;28;8826;-60
2023/09/08 08:39:23;;;;;;;;;11.20;11.20;;;;;24.77;51.82;100042.44;5094278;28;8867;-60
2023/09/08 08:41:52;;;;;;;;;11.60;11.60;;;;;24.90;51.24;100045.16;5094372;28;8830;-60
2023/09/08 08:44:19;;;;;;;;;10.40;10.40;;;;;25.05;51.26;100044.91;5094507;28;8951;-61
2023/09/08 08:46:47;;;;;;;;;10.00;9.00;;;;;25.17;51.17;100046.78;5094521;28;8969;-61
2023/09/08 08:49:15;;;;;;;;;7.00;6.80;;;;;25.30;50.70;100043.19;5094109;28;8956;-60
2023/09/08 08:51:43;;;;;;;;;12.40;11.60;;;;;25.43;50.46;100041.28;5094898;28;8870;-61
2023/09/08 08:54:11;;;;;;;;;12.20;11.20;;;;;25.56;50.31;100048.59;5094724;28;8842;-60
2023/09/08 08:56:38;;;;;;;;;12.80;11.60;;;;;25.66;50.19;100045.19;5094105;28;8846;-60
2023/09/08 08:59:06;;;;;;;;;11.40;10.60;;;;;25.78;50.21;100048.91;5093906;28;8822;-60
2023/09/08 09:01:34;;;;;;;;;12.00;11.20;;;;;25.90;50.35;100049.94;5093908;28;8822;-60
2023/09/08 09:04:02;;;;;;;;;11.40;11.00;;;;;26.06;50.19;100048.59;5093600;28;8881;-59
2023/09/08 09:06:30;;;;;;;;;11.40;11.40;;;;;26.21;49.85;100038.22;5094118;28;8818;-61
2023/09/08 09:08:58;;;;;;;;;11.20;11.00;;;;;26.38;50.06;100036.63;5093487;28;8829;-59
2023/09/08 09:11:26;;;;;;;;;11.80;11.20;;;;;26.54;49.86;100038.84;5093441;28;8838;-59
2023/09/08 09:13:53;;;;;;;;;10.20;10.00;;;;;26.71;49.52;100026.31;5092697;28;8838;-59
2023/09/08 09:16:21;;;;;;;;;12.40;12.40;;;;;26.83;49.06;100027.25;5093205;28;8959;-61
2023/09/08 09:18:49;;;;;;;;;11.80;10.60;;;;;26.95;48.98;100026.28;5093007;28;8826;-60
2023/09/08 09:21:17;;;;;;;;;12.00;11.00;;;;;27.16;48.62;100031.34;5092280;28;8830;-59
2023/09/08 09:23:45;;;;;;;;;11.00;10.60;;;;;27.51;47.54;100024.25;5093439;28;8829;-60
2023/09/08 09:26:13;;;;;;;;;3.80;3.80;;;;;27.84;48.08;100021.94;5093586;28;8877;-60
2023/09/08 09:28:41;;;;;;;;;9.80;9.80;;;;;28.06;47.18;100023.09;5094475;28;9480;-62
2023/09/08 09:31:11;;;;;;;;;11.60;11.40;;;;;28.24;47.15;100025.81;5092639;28;8906;-60
2023/09/08 09:33:38;;;;;;;;;10.60;10.20;;;;;28.38;47.06;100026.47;5093933;28;8830;-60
2023/09/08 09:36:07;;;;;;;;;9.60;9.00;;;;;28.48;47.21;100027.56;5093437;28;8846;-60
2023/09/08 09:38:35;;;;;;;;;8.60;8.00;;;;;28.50;46.78;100025.41;5092524;28;8986;-60
2023/09/08 09:41:03;;;;;;;;;11.00;10.80;;;;;28.51;47.05;100023.53;5092737;28;8826;-61
2023/09/08 09:43:31;;;;;;;;;10.00;9.40;;;;;28.50;46.50;100021.81;5093089;28;8851;-62
2023/09/08 09:45:59;;;;;;;;;8.60;8.60;;;;;28.51;46.60;100016.13;5091570;28;9231;-60
2023/09/08 09:48:26;;;;;;;;;9.60;9.60;;;;;28.62;46.24;100004.34;5092677;28;8836;-59
2023/09/08 09:50:54;;;;;;;;;9.00;8.20;;;;;28.81;46.21;100016.06;5093388;28;8918;-59
2023/09/08 09:53:22;;;;;;;;;11.20;10.00;;;;;29.09;45.67;100013.44;5092505;28;8847;-60
2023/09/08 09:55:50;;;;;;;;;13.20;12.60;;;;;29.51;45.00;100009.50;5093445;28;8872;-59
2023/09/08 09:58:18;;;;;;;;;11.00;9.20;;;;;30.11;44.08;100013.50;5093879;28;8834;-60
2023/09/08 10:00:47;;;;;;;;;11.00;10.80;;;;;30.88;42.48;100011.56;5096863;28;8918;-60
2023/09/08 10:03:16;;;;;;;;;10.00;10.00;;;;;31.80;41.55;100004.38;5096244;28;8852;-59
2023/09/08 10:05:46;;;;;;;;;11.00;10.60;;;;;32.71;40.32;100002.28;5096844;28;9011;-60
2023/09/08 10:08:14;;;;;;;;;10.00;10.00;;;;;33.52;39.62;100012.00;5096809;28;9550;-60
2023/09/08 10:10:45;;;;;;;;;9.00;7.80;;;;;34.16;38.75;100010.59;5095308;28;8915;-60
2023/09/08 10:13:13;;;;;;;;;11.80;9.60;;;;;34.60;38.03;100009.03;5095650;28;8838;-59
2023/09/08 10:15:41;;;;;;;;;8.20;8.20;;;;;34.93;37.84;100008.47;5095664;28;8984;-60
2023/09/08 10:18:09;;;;;;;;;10.00;9.20;;;;;35.35;37.57;100006.22;5096192;28;8927;-60
2023/09/08 10:20:37;;;;;;;;;9.80;9.40;;;;;35.87;36.67;100006.59;5096818;28;8911;-61
2023/09/08 10:26:14;;;;;;;;;10.00;9.80;;;;;36.53;35.89;100004.00;5096655;28;8798;-60
2023/09/08 10:28:41;;;;;;;;;10.00;9.20;;;;;36.57;36.09;100009.78;5095673;28;9550;-59
2023/09/08 10:31:09;;;;;;;;;10.80;10.80;;;;;36.75;35.81;100011.88;5094840;28;8830;-59
2023/09/08 10:33:40;;;;;;;;;8.80;8.40;;;;;36.58;36.35;100005.91;5096385;28;8877;-60
2023/09/08 10:36:08;;;;;;;;;12.40;12.00;;;;;36.19;37.24;100014.22;5095429;28;8825;-60
2023/09/08 10:38:36;;;;;;;;;9.40;8.80;;;;;35.81;37.36;100016.91;5095298;28;9235;-60
2023/09/08 10:41:04;;;;;;;;;9.00;9.00;;;;;35.49;37.72;100007.28;5094997;28;8826;-60
2023/09/08 10:43:34;;;;;;;;;11.60;10.80;;;;;35.16;38.17;100007.88;5094273;28;8834;-61
2023/09/08 10:46:02;;;;;;;;;11.40;11.00;;;;;34.93;38.11;99998.25;5093988;28;8865;-60
2023/09/08 10:48:30;;;;;;;;;10.60;10.00;;;;;34.95;37.82;100006.28;5094131;28;9596;-60
2023/09/08 10:50:58;;;;;;;;;12.00;11.20;;;;;35.19;38.13;100007.34;5095799;28;9898;-60
2023/09/08 10:53:26;;;;;;;;;10.00;10.00;;;;;35.11;37.47;100005.97;5093950;28;8825;-60
2023/09/08 10:55:54;;;;;;;;;10.60;10.00;;;;;34.89;37.58;100001.84;5094667;28;8960;-61
2023/09/08 10:58:25;;;;;;;;;9.40;9.00;;;;;34.86;37.93;100013.47;5093598;28;8899;-60
2023/09/08 11:00:59;;;;;;;;;9.00;9.00;;;;;34.84;38.44;99997.16;5093698;28;8837;-60
2023/09/08 11:03:27;;;;;;;;;10.00;10.00;;;;;34.77;38.44;100006.84;5094334;28;8846;-60
2023/09/08 11:05:56;;;;;;;;;10.20;9.60;;;;;34.68;38.13;100003.78;5093845;28;8853;-60
2023/09/08 11:08:24;;;;;;;;;10.00;9.40;;;;;34.73;38.17;100008.50;5094191;28;8952;-59
2023/09/08 11:10:55;;;;;;;;;10.80;10.80;;;;;34.81;37.89;100000.47;5093923;28;8822;-61
2023/09/08 11:13:23;;;;;;;;;9.60;9.00;;;;;35.13;37.64;100002.91;5094319;28;8846;-60
2023/09/08 11:15:50;;;;;;;;;8.60;7.80;;;;;35.66;36.79;99996.69;5094754;28;8858;-60
2023/09/08 11:18:19;;;;;;;;;10.00;10.00;;;;;36.33;35.78;99995.81;5094726;28;8845;-60
2023/09/08 11:20:47;;;;;;;;;6.80;6.40;;;;;36.89;34.61;99994.28;5095046;28;8922;-59
2023/09/08 11:23:15;;;;;;;;;8.60;8.60;;;;;37.36;34.77;99991.56;5093917;28;8930;-60
2023/09/08 11:25:43;;;;;;;;;9.60;9.60;;;;;37.79;34.38;99995.25;5093976;28;8838;-61
2023/09/08 11:28:10;;;;;;;;;10.00;10.00;;;;;38.23;33.73;100002.16;5094821;28;8899;-60